EDDR/SCN METAR and TAF weather

Enter ICAO airport designator
Station Type Date Time Source
EDDR METAR 2019/10/16 19:20 UTC NOAA

EDDR 161920Z 20008KT CAVOK 13/08 Q1012 NOSIG


Station Type Date Time Source
EDDR Decoded METAR 2019/10/16 19:20 UTC NOAA

Saarbruecken / Ensheim, Germany (EDDR) 49-13N 007-07E 320M
Oct 16, 2019 - 03:20 PM EDT / 2019.10.16 1920 UTC
Wind: from the SSW (200 degrees) at 9 MPH (8 KT):0
Visibility: greater than 7 mile(s):0
Temperature: 55 F (13 C)
Dew Point: 46 F (8 C)
Relative Humidity: 71%
Pressure (altimeter): 29.88 in. Hg (1012 hPa)
ob: EDDR 161920Z 20008KT CAVOK 13/08 Q1012 NOSIG
cycle: 19

Station Type Date Time Source
EDDR TAF 2019/10/16 18:27 UTC NOAA

TAF EDDR 161700Z 1618/1718 20008KT 9999 BKN035
TEMPO 1621/1712 3000 RA BKN010
TEMPO 1712/1718 23015G25KT 4500 SHRA BKN020TCU

Example: see airport list